Terminal Aerodrome Forecast
Issued by NWS

Home | Current Version | Previous Version | Text Only | Print | Product List | Glossary On
Versions: 1 2 3 4 5 6 7 8 9 10 11 12
879
FTUS46 KSEW 231720
TAFPAE
TAF
KPAE 231720Z 2318/2418 13012KT P6SM SCT040 BKN070 BKN150
     FM232100 15013G22KT P6SM SCT040 BKN070 BKN120
     FM240300 16015KT P6SM -RA OVC040
     FM241200 15012KT P6SM -RA OVC035
     FM241500 15012KT P6SM -SHRA BKN035 OVC050=

USA.gov is the U.S. government's official web portal to all federal, state and local government web resources and services.